createdAt,value
2022-08-19T00:01:31.387Z,76.20
2022-08-19T00:04:00.406Z,76.20
2022-08-19T00:06:29.466Z,76.10
2022-08-19T00:08:57.910Z,76.00
2022-08-19T00:11:26.760Z,76.40
2022-08-19T00:13:54.222Z,76.40
2022-08-19T00:16:25.172Z,76.60
2022-08-19T00:18:54.154Z,76.80
2022-08-19T00:21:20.894Z,77.00
2022-08-19T00:23:47.588Z,77.40
2022-08-19T00:26:15.112Z,77.50
2022-08-19T00:28:42.100Z,77.70
2022-08-19T00:31:10.039Z,77.80
2022-08-19T00:33:37.746Z,78.10
2022-08-19T00:36:09.545Z,78.00
2022-08-19T00:38:38.881Z,78.50
2022-08-19T00:41:06.744Z,78.40
2022-08-19T00:43:33.973Z,78.40
2022-08-19T00:46:00.644Z,78.70
2022-08-19T00:48:27.409Z,78.80
2022-08-19T00:50:56.374Z,78.90
2022-08-19T00:53:27.481Z,79.20
2022-08-19T00:55:57.185Z,79.40
2022-08-19T00:58:29.276Z,79.70
2022-08-19T01:00:56.058Z,79.80
2022-08-19T01:03:23.326Z,80.00
2022-08-19T01:05:51.792Z,80.20
2022-08-19T01:08:20.044Z,80.60
2022-08-19T01:10:53.185Z,80.80
2022-08-19T01:13:23.592Z,80.90
2022-08-19T01:15:55.901Z,81.40
2022-08-19T01:18:24.429Z,81.90
2022-08-19T01:20:52.820Z,82.00
2022-08-19T01:23:19.511Z,82.10
2022-08-19T01:25:52.014Z,82.20
2022-08-19T01:28:33.649Z,82.20
2022-08-19T01:31:07.051Z,82.40
2022-08-19T01:33:35.119Z,82.60
2022-08-19T01:36:26.444Z,82.40
2022-08-19T01:38:54.342Z,82.50
2022-08-19T01:41:21.249Z,83.30
2022-08-19T01:44:03.813Z,82.80
2022-08-19T01:46:34.978Z,82.60
2022-08-19T01:49:02.867Z,82.80
2022-08-19T01:51:29.553Z,82.80
2022-08-19T01:54:07.050Z,82.80
2022-08-19T01:56:33.735Z,82.90
2022-08-19T01:59:04.119Z,82.90
2022-08-19T02:01:32.844Z,82.90
2022-08-19T02:04:01.554Z,83.00
2022-08-19T02:06:29.314Z,83.00
2022-08-19T02:08:57.216Z,83.30
2022-08-19T02:11:32.330Z,83.50
2022-08-19T02:14:00.942Z,83.60
2022-08-19T02:16:27.648Z,83.70
2022-08-19T02:18:55.630Z,83.90
2022-08-19T02:21:24.384Z,83.90
2022-08-19T02:23:51.556Z,83.90
2022-08-19T02:26:20.179Z,83.60
2022-08-19T02:28:48.918Z,83.80
2022-08-19T02:31:18.696Z,83.70
2022-08-19T02:33:46.834Z,83.80
2022-08-19T02:36:15.709Z,83.90
2022-08-19T02:38:43.480Z,84.00
2022-08-19T02:41:21.414Z,84.70
2022-08-19T02:44:28.605Z,84.10
2022-08-19T02:46:37.394Z,84.40
2022-08-19T02:49:07.075Z,85.00
2022-08-19T02:51:37.723Z,84.20
2022-08-19T02:54:05.675Z,84.20
2022-08-19T02:56:34.768Z,84.40
2022-08-19T02:59:01.450Z,83.80
2022-08-19T03:01:32.675Z,84.80
2022-08-19T03:04:01.991Z,83.80
2022-08-19T03:06:28.884Z,84.00
2022-08-19T03:08:56.320Z,84.10
2022-08-19T03:11:28.653Z,84.20
2022-08-19T03:13:55.811Z,84.30
2022-08-19T03:16:25.290Z,84.10
2022-08-19T03:18:53.849Z,84.30
2022-08-19T03:21:25.987Z,84.40
2022-08-19T03:23:56.985Z,84.50
2022-08-19T03:26:23.625Z,84.40
2022-08-19T03:28:51.557Z,84.30
2022-08-19T03:31:45.039Z,83.70
2022-08-19T03:34:19.211Z,83.90
2022-08-19T03:36:47.285Z,83.60
2022-08-19T03:39:14.661Z,83.20
2022-08-19T03:41:45.361Z,83.10
2022-08-19T03:44:17.696Z,82.60
2022-08-19T03:46:47.194Z,82.30
2022-08-19T03:49:14.709Z,82.50
2022-08-19T03:51:42.977Z,82.50
2022-08-19T03:54:13.659Z,82.60
2022-08-19T03:56:42.141Z,82.80
2022-08-19T03:59:11.635Z,83.80
2022-08-19T04:01:38.301Z,83.10
2022-08-19T04:04:05.307Z,83.00
2022-08-19T04:06:35.274Z,83.90
2022-08-19T04:09:09.281Z,83.10
2022-08-19T04:11:44.314Z,82.90
2022-08-19T04:14:15.067Z,82.90
2022-08-19T04:16:43.522Z,82.60
2022-08-19T04:19:10.302Z,82.60
2022-08-19T04:21:37.062Z,82.20
2022-08-19T04:24:04.825Z,81.70
2022-08-19T04:26:35.200Z,82.10
2022-08-19T04:29:10.469Z,82.50
2022-08-19T04:31:39.362Z,82.70
2022-08-19T04:34:08.116Z,82.20
2022-08-19T04:36:37.158Z,82.20
2022-08-19T04:39:08.371Z,81.90
2022-08-19T04:41:54.052Z,82.10
2022-08-19T04:44:21.332Z,82.20
2022-08-19T04:46:51.545Z,81.70
2022-08-19T04:49:21.000Z,81.50
2022-08-19T04:51:48.671Z,81.20
2022-08-19T04:54:28.795Z,81.10
2022-08-19T04:57:07.671Z,80.60
2022-08-19T04:59:35.134Z,79.40
2022-08-19T05:02:02.212Z,79.30
2022-08-19T05:04:32.603Z,79.30
2022-08-19T05:07:01.335Z,78.80
2022-08-19T05:09:42.174Z,78.60
2022-08-19T05:12:16.501Z,78.40
2022-08-19T05:14:43.590Z,78.60
2022-08-19T05:20:15.429Z,79.00
2022-08-19T05:22:45.163Z,79.00
2022-08-19T05:25:18.412Z,78.70
2022-08-19T05:27:45.444Z,78.60
2022-08-19T05:30:12.802Z,78.30
2022-08-19T05:32:40.479Z,78.60
2022-08-19T05:35:07.639Z,78.20
2022-08-19T05:37:34.339Z,77.70
2022-08-19T05:40:01.207Z,78.20
2022-08-19T05:42:27.894Z,77.00
2022-08-19T05:44:54.759Z,76.60
2022-08-19T05:47:21.594Z,76.50
2022-08-19T05:49:50.718Z,76.80
2022-08-19T05:52:18.850Z,75.30
2022-08-19T05:54:48.729Z,74.80
2022-08-19T05:57:18.985Z,75.50
2022-08-19T05:59:48.576Z,75.30
2022-08-19T06:02:15.766Z,74.70
2022-08-19T06:04:45.208Z,73.40
2022-08-19T06:07:12.801Z,72.90
2022-08-19T06:09:58.814Z,72.00
2022-08-19T06:12:33.682Z,71.40
2022-08-19T06:15:02.758Z,71.30
2022-08-19T06:17:31.061Z,72.10
2022-08-19T06:19:59.462Z,71.50
2022-08-19T06:22:26.670Z,71.20
2022-08-19T06:24:54.725Z,71.60
2022-08-19T06:27:22.507Z,70.70
2022-08-19T06:29:49.534Z,70.10
2022-08-19T06:32:17.670Z,69.80
2022-08-19T06:34:44.727Z,69.60
2022-08-19T06:37:12.435Z,68.90
2022-08-19T06:39:41.842Z,68.30
2022-08-19T06:42:12.197Z,68.10
2022-08-19T06:44:42.597Z,68.40
2022-08-19T06:47:14.556Z,68.60
2022-08-19T06:49:42.984Z,68.80
2022-08-19T06:52:15.289Z,69.00
2022-08-19T06:54:55.957Z,68.10
2022-08-19T06:57:25.084Z,67.70
2022-08-19T06:59:52.067Z,68.30
2022-08-19T07:02:19.687Z,68.20
2022-08-19T07:04:46.461Z,67.40
2022-08-19T07:07:20.313Z,66.80
2022-08-19T07:09:58.261Z,66.10
2022-08-19T07:12:29.597Z,63.70
2022-08-19T07:14:58.248Z,62.40
2022-08-19T07:17:24.940Z,61.20
2022-08-19T07:19:51.881Z,58.60
2022-08-19T07:22:23.417Z,58.40
2022-08-19T07:24:51.843Z,57.90
2022-08-19T07:27:24.206Z,58.30
2022-08-19T07:29:55.956Z,59.60
2022-08-19T07:32:27.633Z,58.60
2022-08-19T07:34:55.316Z,57.40
2022-08-19T07:37:23.884Z,56.00
2022-08-19T07:39:50.636Z,56.00
2022-08-19T07:42:18.039Z,55.40
2022-08-19T07:44:49.883Z,55.50
2022-08-19T07:47:58.758Z,54.50
2022-08-19T07:50:07.765Z,54.20
2022-08-19T07:52:35.121Z,53.10
2022-08-19T07:55:04.610Z,50.70
2022-08-19T07:57:31.472Z,50.40
2022-08-19T07:59:58.146Z,52.00
2022-08-19T08:02:24.819Z,52.70
2022-08-19T08:05:10.316Z,50.50
2022-08-19T08:07:55.644Z,49.80
2022-08-19T08:10:24.466Z,48.90
2022-08-19T08:13:08.881Z,50.80
2022-08-19T08:15:42.789Z,48.40
2022-08-19T08:18:10.825Z,46.90
2022-08-19T08:20:37.612Z,47.10
2022-08-19T08:23:22.708Z,47.10
2022-08-19T08:25:49.895Z,47.00
2022-08-19T08:28:18.282Z,46.60
2022-08-19T08:30:48.263Z,47.50
2022-08-19T08:33:29.937Z,46.70
2022-08-19T08:36:10.875Z,47.90
2022-08-19T08:38:40.182Z,47.20
2022-08-19T08:41:28.901Z,46.60
2022-08-19T08:43:57.911Z,46.70
2022-08-19T08:46:35.143Z,46.40
2022-08-19T08:49:16.930Z,45.30
2022-08-19T08:51:48.288Z,45.10
2022-08-19T08:54:31.339Z,46.20
2022-08-19T08:56:58.014Z,46.40
2022-08-19T08:59:33.313Z,47.20
2022-08-19T09:02:01.050Z,48.60
2022-08-19T09:04:28.806Z,47.40
2022-08-19T09:07:43.698Z,47.20
2022-08-19T09:10:35.644Z,49.10
2022-08-19T09:13:37.385Z,50.10
2022-08-19T09:16:16.862Z,48.00
2022-08-19T09:18:48.391Z,48.50
2022-08-19T09:21:17.789Z,48.60
2022-08-19T09:23:44.839Z,48.30
2022-08-19T09:26:16.536Z,49.70
2022-08-19T09:28:45.102Z,47.10
2022-08-19T09:31:18.144Z,46.80
2022-08-19T09:33:44.873Z,50.00
2022-08-19T09:36:29.556Z,49.40
2022-08-19T09:39:02.091Z,49.00
2022-08-19T09:41:29.855Z,48.80
2022-08-19T09:43:58.156Z,47.80
2022-08-19T09:46:28.082Z,49.10
2022-08-19T09:48:55.548Z,48.30
2022-08-19T09:51:25.389Z,47.50
2022-08-19T09:53:54.804Z,48.10
2022-08-19T09:56:23.166Z,45.70
2022-08-19T09:58:51.550Z,46.90
2022-08-19T10:01:24.515Z,46.30
2022-08-19T10:03:54.527Z,48.20
2022-08-19T10:06:46.541Z,45.00
2022-08-19T10:09:11.804Z,46.40
2022-08-19T10:11:51.064Z,47.60
2022-08-19T10:14:23.233Z,45.80
2022-08-19T10:16:50.331Z,41.70
2022-08-19T10:19:25.623Z,41.60
2022-08-19T10:21:53.176Z,43.80
2022-08-19T10:24:21.368Z,45.20
2022-08-19T10:26:55.795Z,44.60
2022-08-19T10:29:32.906Z,45.00
2022-08-19T10:32:05.460Z,43.00
2022-08-19T10:34:48.294Z,41.50
2022-08-19T10:37:23.932Z,40.80
2022-08-19T10:39:56.329Z,40.90
2022-08-19T10:42:23.162Z,37.90
2022-08-19T10:44:49.826Z,37.70
2022-08-19T10:47:25.483Z,37.30
2022-08-19T10:50:14.642Z,38.30
2022-08-19T10:52:48.955Z,39.50
2022-08-19T10:55:37.752Z,38.80
2022-08-19T10:58:04.662Z,37.10
2022-08-19T11:00:32.406Z,35.70
2022-08-19T11:02:59.082Z,36.60
2022-08-19T11:05:25.814Z,36.30
2022-08-19T11:07:52.996Z,35.50
2022-08-19T11:10:21.786Z,35.80
2022-08-19T11:12:49.356Z,36.10
2022-08-19T11:15:16.376Z,35.70
2022-08-19T11:17:44.572Z,33.00
2022-08-19T11:20:15.623Z,34.00
2022-08-19T11:22:43.103Z,33.10
2022-08-19T11:25:11.782Z,31.00
2022-08-19T11:27:43.897Z,33.20
2022-08-19T11:30:13.039Z,31.50
2022-08-19T11:32:43.579Z,31.80
2022-08-19T11:35:12.672Z,30.80
2022-08-19T11:37:39.499Z,31.00
2022-08-19T11:40:07.706Z,30.10
2022-08-19T11:42:53.028Z,29.50
2022-08-19T11:45:19.763Z,30.30
2022-08-19T11:47:47.998Z,29.20
2022-08-19T11:50:15.941Z,29.30
2022-08-19T11:52:43.561Z,29.20
2022-08-19T11:55:10.603Z,29.60
2022-08-19T11:57:37.243Z,28.60
2022-08-19T12:00:06.588Z,28.90
2022-08-19T12:02:33.382Z,28.70
2022-08-19T12:05:04.575Z,26.70
2022-08-19T12:07:34.060Z,27.10
2022-08-19T12:10:01.522Z,27.50
2022-08-19T12:12:28.953Z,26.50
2022-08-19T12:14:59.025Z,26.10
2022-08-19T12:17:27.611Z,24.90
2022-08-19T12:19:55.090Z,24.40
2022-08-19T12:22:22.301Z,23.40
2022-08-19T12:24:51.094Z,24.50
2022-08-19T12:27:32.037Z,25.40
2022-08-19T12:30:07.368Z,25.60
2022-08-19T12:32:34.538Z,25.50
2022-08-19T12:35:01.984Z,23.30
2022-08-19T12:37:28.755Z,22.90
2022-08-19T12:39:55.477Z,23.20
2022-08-19T12:42:23.557Z,22.30
2022-08-19T12:44:50.547Z,22.70
2022-08-19T12:47:17.975Z,23.90
2022-08-19T12:49:53.839Z,22.70
2022-08-19T12:52:23.796Z,22.60
2022-08-19T12:54:53.989Z,22.70
2022-08-19T12:57:23.701Z,22.90
2022-08-19T12:59:58.179Z,24.00
2022-08-19T13:02:24.891Z,23.80
2022-08-19T13:04:51.490Z,23.20
2022-08-19T13:07:18.119Z,22.20
2022-08-19T13:09:45.548Z,22.50
2022-08-19T13:12:13.974Z,21.00
2022-08-19T13:14:41.319Z,19.70
2022-08-19T13:17:09.180Z,19.80
2022-08-19T13:19:38.090Z,21.20
2022-08-19T13:22:04.888Z,20.00
2022-08-19T13:24:43.928Z,20.90
2022-08-19T13:27:13.246Z,19.20
2022-08-19T13:30:00.482Z,17.20
2022-08-19T13:32:45.833Z,17.30
2022-08-19T13:35:16.759Z,17.70
2022-08-19T13:37:44.128Z,19.40
2022-08-19T13:40:24.866Z,20.50
2022-08-19T13:42:53.281Z,19.60
2022-08-19T13:45:23.375Z,20.00
2022-08-19T13:47:55.866Z,19.70
2022-08-19T13:50:28.951Z,20.30
2022-08-19T13:52:56.850Z,20.80
2022-08-19T13:55:25.276Z,20.70
2022-08-19T13:57:58.259Z,20.00
2022-08-19T14:00:27.673Z,18.90
2022-08-19T14:02:56.728Z,19.10
2022-08-19T14:05:24.303Z,18.50
2022-08-19T14:07:51.377Z,18.60
2022-08-19T14:10:19.771Z,19.70
2022-08-19T14:12:47.238Z,20.00
2022-08-19T14:15:15.325Z,20.40
2022-08-19T14:17:44.175Z,21.00
2022-08-19T14:20:17.734Z,22.70
2022-08-19T14:22:46.833Z,22.40
2022-08-19T14:25:18.080Z,22.40
2022-08-19T14:27:45.837Z,23.60
2022-08-19T14:30:17.313Z,23.40
2022-08-19T14:32:44.342Z,20.50
2022-08-19T14:35:13.424Z,21.00
2022-08-19T14:37:55.921Z,20.00
2022-08-19T14:40:26.814Z,20.00
2022-08-19T14:43:00.391Z,19.60
2022-08-19T14:45:28.735Z,20.00
2022-08-19T14:47:55.639Z,19.90
2022-08-19T14:50:23.736Z,20.00
2022-08-19T14:52:51.727Z,19.10
2022-08-19T14:55:19.117Z,17.60
2022-08-19T14:57:46.192Z,17.80
2022-08-19T15:00:14.192Z,18.10
2022-08-19T15:02:45.183Z,18.60
2022-08-19T15:05:13.523Z,18.10
2022-08-19T15:07:40.819Z,17.50
2022-08-19T15:10:09.328Z,16.80
2022-08-19T15:12:36.688Z,17.30
2022-08-19T15:15:03.667Z,18.00
2022-08-19T15:17:43.338Z,17.40
2022-08-19T15:20:17.703Z,17.60
2022-08-19T15:22:44.742Z,17.70
2022-08-19T15:25:14.763Z,18.50
2022-08-19T15:27:41.926Z,18.00
2022-08-19T15:30:10.957Z,19.30
2022-08-19T15:32:38.628Z,19.20
2022-08-19T15:35:06.857Z,19.70
2022-08-19T15:37:34.509Z,19.60
2022-08-19T15:40:05.904Z,20.80
2022-08-19T15:42:33.028Z,21.00
2022-08-19T15:45:01.485Z,20.80
2022-08-19T15:47:35.260Z,21.90
2022-08-19T15:50:11.220Z,21.80
2022-08-19T15:52:50.310Z,20.60
2022-08-19T15:55:35.586Z,21.90
2022-08-19T15:58:29.059Z,20.40
2022-08-19T16:01:18.842Z,20.70
2022-08-19T16:04:13.808Z,20.60
2022-08-19T16:06:51.564Z,21.20
2022-08-19T16:09:26.469Z,21.40
2022-08-19T16:12:01.707Z,22.00
2022-08-19T16:14:31.042Z,22.30
2022-08-19T16:16:57.725Z,22.00
2022-08-19T16:19:25.081Z,21.80
2022-08-19T16:21:54.873Z,21.40
2022-08-19T16:24:24.579Z,22.10
2022-08-19T16:26:51.226Z,20.20
2022-08-19T16:29:33.278Z,20.90
2022-08-19T16:32:01.300Z,23.10
2022-08-19T16:34:30.119Z,23.70
2022-08-19T16:36:56.827Z,22.40
2022-08-19T16:39:23.678Z,21.50
2022-08-19T16:41:51.456Z,21.30
2022-08-19T16:44:19.308Z,20.70
2022-08-19T16:46:47.262Z,21.60
2022-08-19T16:49:53.620Z,21.70
2022-08-19T16:52:12.874Z,21.10
2022-08-19T16:54:43.639Z,21.10
2022-08-19T16:57:11.923Z,22.00
2022-08-19T16:59:44.167Z,21.90
2022-08-19T17:02:20.310Z,21.60
2022-08-19T17:04:58.286Z,22.90
2022-08-19T17:07:33.027Z,22.80
2022-08-19T17:10:01.461Z,23.00
2022-08-19T17:12:32.128Z,23.70
2022-08-19T17:15:00.844Z,24.40
2022-08-19T17:17:29.398Z,24.70
2022-08-19T17:19:57.457Z,24.10
2022-08-19T17:22:24.377Z,24.80
2022-08-19T17:24:51.037Z,24.90
2022-08-19T17:27:19.724Z,24.50
2022-08-19T17:29:47.237Z,24.70
2022-08-19T17:32:15.263Z,25.00
2022-08-19T17:34:41.942Z,24.30
2022-08-19T17:37:08.607Z,24.50
2022-08-19T17:39:39.002Z,25.10
2022-08-19T17:42:08.219Z,25.70
2022-08-19T17:44:36.470Z,27.20
2022-08-19T17:47:04.163Z,26.20
2022-08-19T17:49:31.157Z,26.20
2022-08-19T17:52:00.455Z,25.50
2022-08-19T17:54:32.387Z,26.40
2022-08-19T17:57:01.239Z,26.10
2022-08-19T17:59:30.043Z,27.00
2022-08-19T18:01:57.748Z,26.80
2022-08-19T18:04:25.846Z,27.00
2022-08-19T18:06:55.164Z,27.80
2022-08-19T18:09:41.890Z,27.50
2022-08-19T18:12:11.555Z,26.90
2022-08-19T18:14:40.463Z,27.30
2022-08-19T18:17:10.059Z,27.70
2022-08-19T18:19:43.308Z,28.40
2022-08-19T18:22:22.312Z,28.70
2022-08-19T18:24:49.329Z,28.80
2022-08-19T18:27:15.977Z,29.40
2022-08-19T18:29:43.271Z,29.70
2022-08-19T18:32:13.296Z,30.10
2022-08-19T18:34:42.221Z,30.20
2022-08-19T18:37:09.416Z,30.60
2022-08-19T18:39:55.065Z,30.90
2022-08-19T18:42:40.260Z,31.10
2022-08-19T18:45:26.129Z,31.80
2022-08-19T18:48:23.964Z,32.40
2022-08-19T18:50:53.837Z,33.30
2022-08-19T18:53:20.531Z,33.40
2022-08-19T18:55:49.401Z,33.70
2022-08-19T18:58:16.061Z,34.20
2022-08-19T19:00:43.905Z,34.80
2022-08-19T19:03:11.575Z,35.30
2022-08-19T19:05:39.800Z,35.60
2022-08-19T19:08:07.390Z,36.10
2022-08-19T19:10:36.183Z,36.60
2022-08-19T19:13:02.969Z,37.80
2022-08-19T19:15:29.653Z,37.60
2022-08-19T19:17:56.544Z,37.90
2022-08-19T19:20:35.330Z,38.00
2022-08-19T19:23:04.004Z,38.40
2022-08-19T19:25:44.849Z,39.00
2022-08-19T19:28:20.634Z,39.20
2022-08-19T19:30:47.334Z,39.70
2022-08-19T19:33:13.968Z,39.70
2022-08-19T19:35:40.982Z,39.60
2022-08-19T19:38:12.417Z,39.50
2022-08-19T19:40:39.054Z,39.60
2022-08-19T19:43:06.223Z,40.00
2022-08-19T19:45:33.452Z,39.50
2022-08-19T19:48:00.548Z,40.00
2022-08-19T19:50:30.106Z,40.20
2022-08-19T19:52:57.460Z,40.70
2022-08-19T19:55:26.545Z,41.00
2022-08-19T19:57:54.011Z,40.90
2022-08-19T20:00:21.964Z,41.00
2022-08-19T20:02:50.829Z,41.20
2022-08-19T20:05:21.138Z,41.50
2022-08-19T20:08:07.792Z,41.60
2022-08-19T20:10:34.782Z,41.70
2022-08-19T20:13:04.907Z,42.30
2022-08-19T20:15:32.165Z,42.60
2022-08-19T20:17:59.935Z,42.40
2022-08-19T20:20:26.875Z,42.50
2022-08-19T20:22:53.882Z,42.60
2022-08-19T20:25:22.273Z,42.10
2022-08-19T20:27:50.069Z,41.80
2022-08-19T20:30:20.681Z,41.70
2022-08-19T20:32:49.204Z,40.90
2022-08-19T20:35:21.291Z,39.80
2022-08-19T20:37:48.656Z,39.70
2022-08-19T20:40:16.453Z,39.20
2022-08-19T20:42:48.221Z,38.80
2022-08-19T20:45:26.737Z,38.70
2022-08-19T20:48:04.856Z,38.70
2022-08-19T20:50:35.013Z,38.80
2022-08-19T20:53:08.274Z,38.70
2022-08-19T20:55:35.021Z,38.80
2022-08-19T20:58:07.712Z,38.90
2022-08-19T21:00:34.449Z,39.40
2022-08-19T21:03:01.111Z,39.20
2022-08-19T21:05:30.602Z,39.80
2022-08-19T21:07:57.818Z,40.00
2022-08-19T21:10:26.204Z,40.40
2022-08-19T21:12:53.431Z,40.80
2022-08-19T21:15:20.087Z,40.80
2022-08-19T21:17:48.402Z,40.70
2022-08-19T21:20:16.407Z,40.80
2022-08-19T21:22:43.122Z,40.80
2022-08-19T21:25:10.574Z,41.60
2022-08-19T21:27:37.519Z,41.90
2022-08-19T21:30:05.903Z,42.30
2022-08-19T21:32:32.567Z,43.00
2022-08-19T21:35:01.305Z,43.40
2022-08-19T21:37:29.377Z,44.10
2022-08-19T21:39:56.120Z,44.50
2022-08-19T21:42:24.005Z,45.80
2022-08-19T21:44:50.847Z,45.40
2022-08-19T21:47:17.648Z,45.80
2022-08-19T21:49:44.393Z,46.40
2022-08-19T21:52:11.081Z,46.80
2022-08-19T21:54:38.650Z,47.80
2022-08-19T21:57:10.077Z,48.40
2022-08-19T21:59:39.701Z,49.10
2022-08-19T22:02:20.135Z,49.60
2022-08-19T22:04:48.462Z,49.80
2022-08-19T22:07:15.486Z,50.10
2022-08-19T22:09:43.422Z,50.80
2022-08-19T22:12:20.894Z,50.60
2022-08-19T22:14:47.512Z,50.60
2022-08-19T22:17:14.608Z,50.60
2022-08-19T22:19:41.466Z,50.40
2022-08-19T22:22:08.159Z,50.10
2022-08-19T22:24:34.860Z,50.10
2022-08-19T22:27:02.400Z,50.30
2022-08-19T22:29:34.136Z,50.90
2022-08-19T22:32:01.514Z,51.60
2022-08-19T22:34:48.206Z,51.50
2022-08-19T22:37:14.850Z,51.00
2022-08-19T22:39:41.620Z,51.40
2022-08-19T22:42:09.154Z,50.30
2022-08-19T22:44:35.792Z,49.70
2022-08-19T22:47:02.511Z,49.90
2022-08-19T22:49:29.171Z,48.70
2022-08-19T22:52:14.346Z,48.50
2022-08-19T22:54:40.986Z,48.40
2022-08-19T22:57:07.647Z,47.80
2022-08-19T22:59:34.314Z,47.00
2022-08-19T23:02:00.943Z,47.20
2022-08-19T23:04:27.617Z,46.50
2022-08-19T23:06:54.636Z,47.20
2022-08-19T23:09:23.478Z,46.20
2022-08-19T23:11:50.622Z,46.50
2022-08-19T23:14:18.828Z,46.20
2022-08-19T23:16:50.728Z,46.20
2022-08-19T23:19:18.100Z,46.30
2022-08-19T23:21:44.734Z,46.50
2022-08-19T23:24:11.514Z,47.00
2022-08-19T23:26:59.327Z,47.20
2022-08-19T23:30:01.494Z,47.50
2022-08-19T23:32:28.121Z,47.50
2022-08-19T23:34:56.232Z,47.90
2022-08-19T23:37:25.393Z,49.20
2022-08-19T23:39:52.475Z,49.50
2022-08-19T23:42:20.428Z,50.10
2022-08-19T23:44:52.326Z,50.80
2022-08-19T23:47:20.768Z,51.50
2022-08-19T23:49:48.526Z,51.80
2022-08-19T23:52:15.377Z,52.00
2022-08-19T23:54:43.559Z,52.70
2022-08-19T23:57:14.271Z,53.70
2022-08-19T23:59:42.710Z,54.70
